createdAt,value
2023-01-11T00:00:20.068Z,16.17
2023-01-11T00:02:52.252Z,19.02
2023-01-11T00:05:21.335Z,19.83
2023-01-11T00:07:50.429Z,17.92
2023-01-11T00:10:21.446Z,18.27
2023-01-11T00:12:50.839Z,19.05
2023-01-11T00:15:20.081Z,13.43
2023-01-11T00:17:49.179Z,17.48
2023-01-11T00:20:18.709Z,25.67
2023-01-11T00:22:47.866Z,21.23
2023-01-11T00:25:17.100Z,23.63
2023-01-11T00:27:48.189Z,15.40
2023-01-11T00:30:19.479Z,37.85
2023-01-11T00:32:48.913Z,13.48
2023-01-11T00:35:18.057Z,56.60
2023-01-11T00:37:47.152Z,4.07
2023-01-11T00:40:16.419Z,7.65
2023-01-11T00:43:03.716Z,3.75
2023-01-11T00:45:51.474Z,7.25
2023-01-11T00:48:20.700Z,6.72
2023-01-11T00:50:49.830Z,7.70
2023-01-11T00:53:20.375Z,5.53
2023-01-11T00:55:49.566Z,4.35
2023-01-11T00:58:18.703Z,8.43
2023-01-11T01:00:47.803Z,11.38
2023-01-11T01:03:17.155Z,9.35
2023-01-11T01:05:46.705Z,10.52
2023-01-11T01:08:15.925Z,6.05
2023-01-11T01:10:45.200Z,7.10
2023-01-11T01:13:32.809Z,8.40
2023-01-11T01:16:02.174Z,5.57
2023-01-11T01:18:31.549Z,6.88
2023-01-11T01:21:00.761Z,5.95
2023-01-11T01:23:29.939Z,8.00
2023-01-11T01:25:59.210Z,7.78
2023-01-11T01:28:28.554Z,7.55
2023-01-11T01:30:58.158Z,8.25
2023-01-11T01:33:27.600Z,9.70
2023-01-11T01:35:56.824Z,7.72
2023-01-11T01:38:26.023Z,7.50
2023-01-11T01:40:55.330Z,7.30
2023-01-11T01:43:58.916Z,14.20
2023-01-11T01:46:34.879Z,3.83
2023-01-11T01:49:15.474Z,7.55
2023-01-11T01:51:52.837Z,5.55
2023-01-11T01:54:46.868Z,7.05
2023-01-11T01:57:27.243Z,6.55
2023-01-11T02:00:02.557Z,4.97
2023-01-11T02:02:32.864Z,7.53
2023-01-11T02:05:05.782Z,10.32
2023-01-11T02:07:44.651Z,7.53
2023-01-11T02:10:19.763Z,9.25
2023-01-11T02:13:14.633Z,7.20
2023-01-11T02:15:44.631Z,11.35
2023-01-11T02:18:15.630Z,5.13
2023-01-11T02:21:17.449Z,6.18
2023-01-11T02:24:35.803Z,5.90
2023-01-11T02:27:59.247Z,7.55
2023-01-11T02:30:46.370Z,7.45
2023-01-11T02:33:39.917Z,12.35
2023-01-11T02:36:34.060Z,5.47
2023-01-11T02:39:38.031Z,9.63
2023-01-11T02:42:47.149Z,5.63
2023-01-11T02:45:45.209Z,5.85
2023-01-11T02:49:02.991Z,4.97
2023-01-11T02:52:18.702Z,8.98
2023-01-11T02:54:56.614Z,9.15
2023-01-11T02:57:30.508Z,6.78
2023-01-11T03:00:01.639Z,7.63
2023-01-11T03:02:31.329Z,9.70
2023-01-11T03:05:00.533Z,8.05
2023-01-11T03:07:54.928Z,5.05
2023-01-11T03:10:36.004Z,9.48
2023-01-11T03:13:37.969Z,7.40
2023-01-11T03:16:35.407Z,6.95
2023-01-11T03:19:19.311Z,6.68
2023-01-11T03:22:00.258Z,4.45
2023-01-11T03:25:07.716Z,4.78
2023-01-11T03:28:12.795Z,4.55
2023-01-11T03:31:38.401Z,5.82
2023-01-11T03:34:31.574Z,5.65
2023-01-11T03:37:20.175Z,4.32
2023-01-11T03:40:11.893Z,4.13
2023-01-11T03:43:07.170Z,7.55
2023-01-11T03:45:59.715Z,3.75
2023-01-11T03:48:46.188Z,7.05
2023-01-11T03:51:22.196Z,5.93
2023-01-11T03:53:53.981Z,7.45
2023-01-11T03:56:31.891Z,8.77
2023-01-11T03:59:02.167Z,9.18
2023-01-11T04:01:32.274Z,6.25
2023-01-11T04:04:01.538Z,4.95
2023-01-11T04:06:32.143Z,7.55
2023-01-11T04:09:01.390Z,3.25
2023-01-11T04:11:30.628Z,8.52
2023-01-11T04:13:59.844Z,4.40
2023-01-11T04:16:29.372Z,5.10
2023-01-11T04:18:58.660Z,3.10
2023-01-11T04:21:27.920Z,5.82
2023-01-11T04:23:57.285Z,3.45
2023-01-11T04:26:26.476Z,3.95
2023-01-11T04:28:55.648Z,6.43
2023-01-11T04:31:25.144Z,1.90
2023-01-11T04:33:54.637Z,2.22
2023-01-11T04:36:24.116Z,5.70
2023-01-11T04:38:53.367Z,8.32
2023-01-11T04:41:40.615Z,4.03
2023-01-11T04:44:09.963Z,6.28
2023-01-11T04:46:39.236Z,5.70
2023-01-11T04:49:08.476Z,6.35
2023-01-11T04:51:37.636Z,3.80
2023-01-11T04:54:07.476Z,4.75
2023-01-11T04:56:37.348Z,4.93
2023-01-11T04:59:06.619Z,5.70
2023-01-11T05:01:35.948Z,4.35
2023-01-11T05:04:05.234Z,6.45
2023-01-11T05:06:35.273Z,4.95
2023-01-11T05:09:04.911Z,5.65
2023-01-11T05:11:34.543Z,2.95
2023-01-11T05:14:03.649Z,5.55
2023-01-11T05:16:32.867Z,3.13
2023-01-11T05:19:03.069Z,6.38
2023-01-11T05:21:36.622Z,5.80
2023-01-11T05:24:09.336Z,4.13
2023-01-11T05:26:40.865Z,3.08
2023-01-11T05:29:14.785Z,2.85
2023-01-11T05:31:44.700Z,1.77
2023-01-11T05:34:16.470Z,4.55
2023-01-11T05:36:46.477Z,4.90
2023-01-11T05:39:16.360Z,9.43
2023-01-11T05:41:45.483Z,8.82
2023-01-11T05:44:34.257Z,6.25
2023-01-11T05:47:03.362Z,5.10
2023-01-11T05:49:32.516Z,2.47
2023-01-11T05:52:01.741Z,1.70
2023-01-11T05:54:30.878Z,3.00
2023-01-11T05:57:00.265Z,3.10
2023-01-11T05:59:31.940Z,0.95
2023-01-11T06:02:01.416Z,2.72
2023-01-11T06:04:30.812Z,5.68
2023-01-11T06:07:00.348Z,3.00
2023-01-11T06:09:31.793Z,4.75
2023-01-11T06:12:00.907Z,4.97
2023-01-11T06:14:30.025Z,4.07
2023-01-11T06:16:59.326Z,4.57
2023-01-11T06:19:28.426Z,4.85
2023-01-11T06:21:57.569Z,6.20
2023-01-11T06:24:26.784Z,6.70
2023-01-11T06:26:56.998Z,4.50
2023-01-11T06:29:26.189Z,8.13
2023-01-11T06:31:55.396Z,2.67
2023-01-11T06:34:24.633Z,3.33
2023-01-11T06:36:53.791Z,2.35
2023-01-11T06:39:23.090Z,13.93
2023-01-11T06:41:52.193Z,3.85
2023-01-11T06:44:21.896Z,6.53
2023-01-11T06:46:51.142Z,1.50
2023-01-11T06:49:20.222Z,4.57
2023-01-11T06:51:49.308Z,3.20
2023-01-11T06:54:22.938Z,6.32
2023-01-11T06:56:52.194Z,3.17
2023-01-11T06:59:21.341Z,5.15
2023-01-11T07:01:51.073Z,3.30
2023-01-11T07:04:20.799Z,5.47
2023-01-11T07:06:50.026Z,7.45
2023-01-11T07:09:19.769Z,5.05
2023-01-11T07:11:48.905Z,6.32
2023-01-11T07:14:21.007Z,2.80
2023-01-11T07:16:50.315Z,3.75
2023-01-11T07:19:19.626Z,3.08
2023-01-11T07:21:48.952Z,3.95
2023-01-11T07:24:18.213Z,3.20
2023-01-11T07:26:47.359Z,5.57
2023-01-11T07:29:18.800Z,5.28
2023-01-11T07:31:49.045Z,6.85
2023-01-11T07:34:18.255Z,2.90
2023-01-11T07:36:47.366Z,3.40
2023-01-11T07:39:16.605Z,1.45
2023-01-11T07:42:03.786Z,3.78
2023-01-11T07:44:33.029Z,4.90
2023-01-11T07:47:02.256Z,2.88
2023-01-11T07:49:31.563Z,4.00
2023-01-11T07:52:00.713Z,5.88
2023-01-11T07:54:29.788Z,2.55
2023-01-11T07:56:59.111Z,2.17
2023-01-11T07:59:28.324Z,2.00
2023-01-11T08:01:57.593Z,2.53
2023-01-11T08:04:26.933Z,2.80
2023-01-11T08:06:56.484Z,2.05
2023-01-11T08:09:28.567Z,3.60
2023-01-11T08:12:16.429Z,5.65
2023-01-11T08:14:45.820Z,3.13
2023-01-11T08:17:17.387Z,2.03
2023-01-11T08:19:46.667Z,2.10
2023-01-11T08:22:15.982Z,1.05
2023-01-11T08:24:45.600Z,1.33
2023-01-11T08:27:15.027Z,4.70
2023-01-11T08:29:46.971Z,4.43
2023-01-11T08:32:16.209Z,5.47
2023-01-11T08:34:45.487Z,2.53
2023-01-11T08:37:15.500Z,2.85
2023-01-11T08:39:44.724Z,3.55
2023-01-11T08:42:13.957Z,3.67
2023-01-11T08:44:43.107Z,2.47
2023-01-11T08:47:12.444Z,2.92
2023-01-11T08:49:44.747Z,4.20
2023-01-11T08:52:17.326Z,2.30
2023-01-11T08:54:46.619Z,1.67
2023-01-11T08:57:16.124Z,2.40
2023-01-11T08:59:45.557Z,0.85
2023-01-11T09:02:15.311Z,1.02
2023-01-11T09:04:44.505Z,2.75
2023-01-11T09:07:13.647Z,3.08
2023-01-11T09:09:42.869Z,2.42
2023-01-11T09:12:12.162Z,1.17
2023-01-11T09:14:41.588Z,2.10
2023-01-11T09:17:11.024Z,5.25
2023-01-11T09:19:42.123Z,3.90
2023-01-11T09:22:11.494Z,1.55
2023-01-11T09:24:40.734Z,2.45
2023-01-11T09:27:12.392Z,2.05
2023-01-11T09:29:41.633Z,2.08
2023-01-11T09:32:12.951Z,1.50
2023-01-11T09:34:45.309Z,1.02
2023-01-11T09:37:15.835Z,1.13
2023-01-11T09:39:45.701Z,3.70
2023-01-11T09:42:30.392Z,0.80
2023-01-11T09:45:21.220Z,2.42
2023-01-11T09:48:05.924Z,3.08
2023-01-11T09:50:44.275Z,3.05
2023-01-11T09:53:39.310Z,1.10
2023-01-11T09:56:15.532Z,5.38
2023-01-11T09:59:35.192Z,2.92
2023-01-11T10:02:18.290Z,5.13
2023-01-11T10:05:26.888Z,4.40
2023-01-11T10:18:37.855Z,2.15
2023-01-11T10:19:17.065Z,6.13
2023-01-11T10:22:10.519Z,1.75
2023-01-11T10:25:09.426Z,3.35
2023-01-11T10:28:08.479Z,3.13
2023-01-11T10:31:00.438Z,1.00
2023-01-11T10:33:44.384Z,2.25
2023-01-11T10:37:15.759Z,2.35
2023-01-11T10:40:31.448Z,2.15
2023-01-11T10:43:23.576Z,2.92
2023-01-11T10:46:22.565Z,1.70
2023-01-11T10:49:17.524Z,2.90
2023-01-11T10:51:50.243Z,1.95
2023-01-11T10:54:28.562Z,1.67
2023-01-11T10:57:29.405Z,2.08
2023-01-11T11:00:26.624Z,4.00
2023-01-11T11:03:17.210Z,2.25
2023-01-11T11:06:15.336Z,3.15
2023-01-11T11:09:25.886Z,3.22
2023-01-11T11:12:11.785Z,4.05
2023-01-11T11:14:46.223Z,2.13
2023-01-11T11:17:33.990Z,2.70
2023-01-11T11:20:15.956Z,2.95
2023-01-11T11:22:48.256Z,3.15
2023-01-11T11:25:42.597Z,2.92
2023-01-11T11:28:26.685Z,2.83
2023-01-11T11:31:06.713Z,3.35
2023-01-11T11:33:41.493Z,2.30
2023-01-11T11:36:14.276Z,2.15
2023-01-11T11:39:22.876Z,4.10
2023-01-11T11:41:58.267Z,7.13
2023-01-11T11:44:29.965Z,3.78
2023-01-11T11:47:04.455Z,5.28
2023-01-11T11:49:37.298Z,4.22
2023-01-11T11:52:08.611Z,3.63
2023-01-11T11:55:00.157Z,4.13
2023-01-11T11:57:41.347Z,10.93
2023-01-11T12:00:31.802Z,4.43
2023-01-11T12:03:34.078Z,3.10
2023-01-11T12:06:08.575Z,3.45
2023-01-11T12:08:38.867Z,4.10
2023-01-11T12:11:17.556Z,2.90
2023-01-11T12:14:03.047Z,5.82
2023-01-11T12:16:41.053Z,5.28
2023-01-11T12:19:42.569Z,7.30
2023-01-11T12:22:27.064Z,8.40
2023-01-11T12:25:27.862Z,9.75
2023-01-11T12:28:21.047Z,9.13
2023-01-11T12:31:29.090Z,8.68
2023-01-11T12:34:40.870Z,6.55
2023-01-11T12:37:18.498Z,3.65
2023-01-11T12:40:21.129Z,6.18
2023-01-11T12:43:02.006Z,7.68
2023-01-11T12:46:04.260Z,5.78
2023-01-11T12:48:50.947Z,6.57
2023-01-11T12:52:29.044Z,5.65
2023-01-11T12:55:32.764Z,3.55
2023-01-11T12:58:10.983Z,4.60
2023-01-11T13:01:11.030Z,7.10
2023-01-11T13:04:08.185Z,6.22
2023-01-11T13:06:48.162Z,4.97
2023-01-11T13:09:46.517Z,9.75
2023-01-11T13:15:34.337Z,6.72
2023-01-11T13:18:28.101Z,3.92
2023-01-11T13:21:01.629Z,8.02
2023-01-11T13:23:56.350Z,5.85
2023-01-11T13:26:41.366Z,6.55
2023-01-11T13:29:36.086Z,6.32
2023-01-11T13:32:14.764Z,9.32
2023-01-11T13:35:18.264Z,8.00
2023-01-11T13:38:18.036Z,4.32
2023-01-11T13:40:56.583Z,7.35
2023-01-11T13:46:32.737Z,7.30
2023-01-11T13:49:30.736Z,6.00
2023-01-11T13:52:12.244Z,4.50
2023-01-11T13:55:29.291Z,9.68
2023-01-11T13:58:18.834Z,10.68
2023-01-11T14:01:14.856Z,10.90
2023-01-11T14:03:57.952Z,6.15
2023-01-11T14:06:55.488Z,5.50
2023-01-11T14:10:02.882Z,7.53
2023-01-11T14:12:55.024Z,5.15
2023-01-11T14:16:00.028Z,6.25
2023-01-11T14:19:00.020Z,6.15
2023-01-11T14:21:58.695Z,10.80
2023-01-11T14:24:31.776Z,10.98
2023-01-11T14:27:51.388Z,8.82
2023-01-11T14:30:48.416Z,13.15
2023-01-11T14:33:20.580Z,13.18
2023-01-11T14:36:26.360Z,11.90
2023-01-11T14:39:01.252Z,8.63
2023-01-11T14:42:29.348Z,7.88
2023-01-11T14:45:17.900Z,8.73
2023-01-11T14:47:53.138Z,9.80
2023-01-11T14:50:52.584Z,7.55
2023-01-11T14:53:30.827Z,6.97
2023-01-11T14:56:05.155Z,8.40
2023-01-11T14:58:34.713Z,9.63
2023-01-11T15:01:11.838Z,4.95
2023-01-11T15:03:51.374Z,6.55
2023-01-11T15:06:22.910Z,8.63
2023-01-11T15:08:56.178Z,7.97
2023-01-11T15:11:39.156Z,5.65
2023-01-11T15:14:33.760Z,9.18
2023-01-11T15:17:22.570Z,8.80
2023-01-11T15:19:54.236Z,11.05
2023-01-11T15:22:35.250Z,7.75
2023-01-11T15:25:20.717Z,10.52
2023-01-11T15:27:51.203Z,7.00
2023-01-11T15:30:32.666Z,9.13
2023-01-11T15:33:20.313Z,9.52
2023-01-11T15:35:58.665Z,6.27
2023-01-11T15:38:44.865Z,7.57
2023-01-11T15:42:06.176Z,6.45
2023-01-11T15:45:22.094Z,8.95
2023-01-11T15:48:18.264Z,6.93
2023-01-11T15:51:09.319Z,6.93
2023-01-11T15:54:33.688Z,9.07
2023-01-11T15:57:33.278Z,6.05
2023-01-11T16:00:38.442Z,6.63
2023-01-11T16:03:44.009Z,8.77
2023-01-11T16:06:38.499Z,6.43
2023-01-11T16:09:21.199Z,8.88
2023-01-11T16:12:25.482Z,8.45
2023-01-11T16:15:42.779Z,9.40
2023-01-11T16:18:29.189Z,5.80
2023-01-11T16:21:15.238Z,5.97
2023-01-11T16:23:45.705Z,6.22
2023-01-11T16:26:22.774Z,8.40
2023-01-11T16:28:59.323Z,7.50
2023-01-11T16:31:59.090Z,7.72
2023-01-11T16:34:32.028Z,7.95
2023-01-11T16:37:01.877Z,6.75
2023-01-11T16:39:34.896Z,7.97
2023-01-11T16:42:11.510Z,10.35
2023-01-11T16:45:07.078Z,7.93
2023-01-11T16:47:39.846Z,7.25
2023-01-11T16:50:23.532Z,11.20
2023-01-11T16:52:57.723Z,7.70
2023-01-11T16:55:40.962Z,7.78
2023-01-11T16:58:26.825Z,6.75
2023-01-11T17:01:09.648Z,7.10
2023-01-11T17:03:52.764Z,6.28
2023-01-11T17:06:27.348Z,8.52
2023-01-11T17:09:01.327Z,7.20
2023-01-11T17:11:42.682Z,9.00
2023-01-11T17:14:38.842Z,9.18
2023-01-11T17:17:14.181Z,9.55
2023-01-11T17:19:51.846Z,5.55
2023-01-11T17:22:39.560Z,9.65
2023-01-11T17:25:22.056Z,12.60
2023-01-11T17:28:05.380Z,8.27
2023-01-11T17:30:36.212Z,11.00
2023-01-11T17:33:05.668Z,8.30
2023-01-11T17:35:46.069Z,9.02
2023-01-11T17:38:22.372Z,7.40
2023-01-11T17:40:52.495Z,9.25
2023-01-11T17:43:48.172Z,8.45
2023-01-11T17:46:27.310Z,9.23
2023-01-11T17:49:01.848Z,9.88
2023-01-11T17:51:34.896Z,8.07
2023-01-11T17:54:04.357Z,9.00
2023-01-11T17:56:42.586Z,7.00
2023-01-11T17:59:32.914Z,8.57
2023-01-11T18:02:20.345Z,9.20
2023-01-11T18:05:00.921Z,7.50
2023-01-11T18:07:30.147Z,7.85
2023-01-11T18:10:03.782Z,8.18
2023-01-11T18:12:36.039Z,7.18
2023-01-11T18:15:08.254Z,7.47
2023-01-11T18:17:43.017Z,8.98
2023-01-11T18:20:23.764Z,8.40
2023-01-11T18:23:02.755Z,7.63
2023-01-11T18:25:36.188Z,9.68
2023-01-11T18:28:22.050Z,10.75
2023-01-11T18:30:59.122Z,8.20
2023-01-11T18:33:35.373Z,11.93
2023-01-11T18:36:19.227Z,10.80
2023-01-11T18:38:48.563Z,5.95
2023-01-11T18:41:36.597Z,5.32
2023-01-11T18:44:05.929Z,9.00
2023-01-11T18:46:35.013Z,5.65
2023-01-11T18:49:04.186Z,6.68
2023-01-11T18:51:42.548Z,5.38
2023-01-11T18:54:19.389Z,5.55
2023-01-11T18:56:48.523Z,4.53
2023-01-11T18:59:17.731Z,5.75
2023-01-11T19:01:56.557Z,5.25
2023-01-11T19:04:33.824Z,10.15
2023-01-11T19:07:02.943Z,10.63
2023-01-11T19:09:32.033Z,5.93
2023-01-11T19:12:01.348Z,9.38
2023-01-11T19:14:30.454Z,9.75
2023-01-11T19:16:59.795Z,12.57
2023-01-11T19:19:28.965Z,9.45
2023-01-11T19:21:58.100Z,3.67
2023-01-11T19:24:27.280Z,5.18
2023-01-11T19:26:56.765Z,5.68
2023-01-11T19:29:26.437Z,3.85
2023-01-11T19:31:59.242Z,4.78
2023-01-11T19:34:28.498Z,3.30
2023-01-11T19:36:57.625Z,4.30
2023-01-11T19:39:27.813Z,6.72
2023-01-11T19:42:00.933Z,7.85
2023-01-11T19:44:35.880Z,7.35
2023-01-11T19:47:13.540Z,3.60
2023-01-11T19:49:44.547Z,6.13
2023-01-11T19:52:19.874Z,4.35
2023-01-11T19:54:49.341Z,8.20
2023-01-11T19:57:23.707Z,4.03
2023-01-11T19:59:53.677Z,5.25
2023-01-11T20:02:23.445Z,6.45
2023-01-11T20:04:52.708Z,5.40
2023-01-11T20:07:22.132Z,10.73
2023-01-11T20:09:51.246Z,8.73
2023-01-11T20:12:20.495Z,8.65
2023-01-11T20:14:49.666Z,9.13
2023-01-11T20:17:21.947Z,6.85
2023-01-11T20:19:55.427Z,6.75
2023-01-11T20:22:27.881Z,6.60
2023-01-11T20:24:57.126Z,5.03
2023-01-11T20:27:26.359Z,7.78
2023-01-11T20:29:55.480Z,5.07
2023-01-11T20:32:40.252Z,5.78
2023-01-11T20:35:11.348Z,6.18
2023-01-11T20:37:40.494Z,6.63
2023-01-11T20:40:14.136Z,6.88
2023-01-11T20:42:43.600Z,7.40
2023-01-11T20:45:13.213Z,6.63
2023-01-11T20:47:42.628Z,8.38
2023-01-11T20:50:12.408Z,8.52
2023-01-11T20:52:41.549Z,6.75
2023-01-11T20:55:11.453Z,7.00
2023-01-11T20:57:40.607Z,6.65
2023-01-11T21:02:39.600Z,8.35
2023-01-11T21:05:09.432Z,5.32
2023-01-11T21:07:38.584Z,6.47
2023-01-11T21:10:08.693Z,12.20
2023-01-11T21:15:09.617Z,2.95
2023-01-11T21:17:39.351Z,8.07
2023-01-11T21:20:09.492Z,5.43
2023-01-11T21:22:38.581Z,8.75
2023-01-11T21:25:08.570Z,2.75
2023-01-11T21:27:39.135Z,4.47
2023-01-11T21:30:09.242Z,6.90
2023-01-11T21:32:38.344Z,10.30
2023-01-11T21:35:07.957Z,12.68
2023-01-11T21:37:37.108Z,11.93
2023-01-11T21:40:07.057Z,11.38
2023-01-11T21:42:36.239Z,10.77
2023-01-11T21:45:06.334Z,12.85
2023-01-11T21:47:35.527Z,12.93
2023-01-11T21:50:04.793Z,20.15
2023-01-11T21:52:33.888Z,11.23
2023-01-11T21:55:03.375Z,15.10
2023-01-11T21:57:32.487Z,16.65
2023-01-11T22:00:01.829Z,22.80
2023-01-11T22:02:31.019Z,23.35
2023-01-11T22:05:00.464Z,22.33
2023-01-11T22:07:33.687Z,18.60
2023-01-11T22:10:05.248Z,21.17
2023-01-11T22:12:35.749Z,17.92
2023-01-11T22:15:05.098Z,21.10
2023-01-11T22:17:34.489Z,15.43
2023-01-11T22:20:03.857Z,14.80
2023-01-11T22:22:33.134Z,13.27
2023-01-11T22:25:02.320Z,11.27
2023-01-11T22:27:31.532Z,11.82
2023-01-11T22:30:01.055Z,14.00
2023-01-11T22:32:32.631Z,11.52
2023-01-11T22:35:01.831Z,11.73
2023-01-11T22:37:31.058Z,13.95
2023-01-11T22:40:01.579Z,15.20
2023-01-11T22:42:31.154Z,16.08
2023-01-11T22:45:00.356Z,18.85
2023-01-11T22:47:29.623Z,22.60
2023-01-11T22:49:58.947Z,24.80
2023-01-11T22:52:28.189Z,24.02
2023-01-11T22:54:57.429Z,22.48
2023-01-11T22:57:26.592Z,21.02
2023-01-11T22:59:58.903Z,21.17
2023-01-11T23:02:28.197Z,20.27
2023-01-11T23:04:57.455Z,21.30
2023-01-11T23:07:26.625Z,22.17
2023-01-11T23:09:55.888Z,17.20
2023-01-11T23:12:43.128Z,15.45
2023-01-11T23:15:12.775Z,16.67
2023-01-11T23:17:41.960Z,16.30
2023-01-11T23:20:12.547Z,18.27
2023-01-11T23:22:41.751Z,17.02
2023-01-11T23:25:11.540Z,16.40
2023-01-11T23:27:40.783Z,17.80
2023-01-11T23:30:11.263Z,17.52
2023-01-11T23:32:40.451Z,18.92
2023-01-11T23:35:10.091Z,20.45
2023-01-11T23:37:39.332Z,23.77
2023-01-11T23:40:09.746Z,20.85
2023-01-11T23:42:39.557Z,16.52
2023-01-11T23:45:09.635Z,17.63
2023-01-11T23:47:38.795Z,17.65
2023-01-11T23:50:08.568Z,18.30
2023-01-11T23:52:37.743Z,22.42
2023-01-11T23:55:07.575Z,19.98
2023-01-11T23:57:36.781Z,28.77
